Weather at Coral Bay Airport

Public forecast

Using degrees Celsius for public forecast. Weather courtesy of forecast.io.

Closest aviation weather report (METAR) to Coral Bay Airport

Closest report is Learmonth Airport, 56.3 nm (104.3 km) NNE.

2023/01/27 04:30 (retrieved 11 minutes ago)

YPLM 270430Z AUTO 09010KT 090V150 9999 // NCD 38/17 Q1003 RF000/0000

Closest aviation forecast (TAF) to Coral Bay Airport

Forecast is more than 6 hours old.

Closest forecast is Woomera Airfield, 1,318.3 nm (2,441.5 km) ESE.

2023/01/26 22:00 Ammendment (retrieved 7 hours ago)

TAF AMD YPWR 262236Z 2622/2718 03014KT CAVOK